createdAt,value
2023-01-26T00:00:55.580Z,18.3
2023-01-26T00:02:02.687Z,18.7
2023-01-26T00:03:09.697Z,18
2023-01-26T00:04:16.887Z,18.2
2023-01-26T00:05:24.002Z,18.2
2023-01-26T00:06:31.355Z,18.2
2023-01-26T00:07:38.822Z,19.2
2023-01-26T00:08:46.091Z,18.7
2023-01-26T00:09:56.483Z,18.5
2023-01-26T00:11:03.665Z,19
2023-01-26T00:12:11.176Z,19
2023-01-26T00:13:18.357Z,19
2023-01-26T00:14:25.474Z,19
2023-01-26T00:15:32.603Z,19
2023-01-26T00:16:39.871Z,19
2023-01-26T00:17:46.859Z,19
2023-01-26T00:18:53.913Z,19
2023-01-26T00:20:01.228Z,19.6
2023-01-26T00:21:08.305Z,18
2023-01-26T00:22:15.578Z,19.6
2023-01-26T00:23:22.619Z,19.6
2023-01-26T00:24:29.682Z,19.8
2023-01-26T00:25:36.745Z,19.4
2023-01-26T00:26:43.935Z,18.8
2023-01-26T00:27:51.077Z,19.5
2023-01-26T00:28:58.214Z,20.3
2023-01-26T00:30:05.286Z,19.5
2023-01-26T00:31:13.009Z,20.4
2023-01-26T00:32:20.078Z,18.6
2023-01-26T00:33:27.270Z,19.7
2023-01-26T00:34:34.340Z,18.7
2023-01-26T00:35:41.347Z,19.4
2023-01-26T00:36:48.547Z,20.3
2023-01-26T00:37:55.702Z,20.3
2023-01-26T00:39:02.847Z,19.9
2023-01-26T00:40:10.308Z,19.6
2023-01-26T00:41:17.291Z,19
2023-01-26T00:42:29.395Z,18.6
2023-01-26T00:43:36.518Z,19
2023-01-26T00:44:43.605Z,17.9
2023-01-26T00:45:50.761Z,17.6
2023-01-26T00:46:57.839Z,15.5
2023-01-26T00:48:05.007Z,16.7
2023-01-26T00:49:12.103Z,16.5
2023-01-26T00:50:19.336Z,16.6
2023-01-26T00:51:26.287Z,16.8
2023-01-26T00:52:33.370Z,17.8
2023-01-26T00:53:40.723Z,15.6
2023-01-26T00:54:47.709Z,16.5
2023-01-26T00:55:54.833Z,16.9
2023-01-26T00:57:02.120Z,19
2023-01-26T00:58:09.121Z,20.1
2023-01-26T00:59:16.246Z,19.2
2023-01-26T01:00:23.388Z,18.4
2023-01-26T01:01:30.561Z,18.5
2023-01-26T01:02:37.825Z,18.3
2023-01-26T01:03:45.308Z,18.3
2023-01-26T01:04:52.382Z,18.3
2023-01-26T01:05:59.498Z,18.1
2023-01-26T01:07:06.615Z,17.5
2023-01-26T01:08:13.805Z,17.6
2023-01-26T01:09:21.002Z,17.5
2023-01-26T01:10:28.172Z,17.7
2023-01-26T01:11:35.108Z,17.1
2023-01-26T01:12:42.299Z,18
2023-01-26T01:13:49.426Z,17.1
2023-01-26T01:14:56.566Z,17.8
2023-01-26T01:16:04.065Z,17.1
2023-01-26T01:17:11.440Z,17.4
2023-01-26T01:18:18.454Z,17.8
2023-01-26T01:19:25.623Z,16.7
2023-01-26T01:20:32.664Z,17.8
2023-01-26T01:21:39.898Z,17.9
2023-01-26T01:22:47.224Z,17.9
2023-01-26T01:23:54.096Z,18
2023-01-26T01:25:01.281Z,18.8
2023-01-26T01:26:08.388Z,17.3
2023-01-26T01:27:15.610Z,18.1
2023-01-26T01:28:22.801Z,17.8
2023-01-26T01:29:29.831Z,18.2
2023-01-26T01:30:36.967Z,17.6
2023-01-26T01:31:44.117Z,18.2
2023-01-26T01:32:51.199Z,18.1
2023-01-26T01:33:58.385Z,18.6
2023-01-26T01:35:05.537Z,18.2
2023-01-26T01:36:12.625Z,17.4
2023-01-26T01:37:19.735Z,19.6
2023-01-26T01:38:26.898Z,19.6
2023-01-26T01:39:34.015Z,19.7
2023-01-26T01:40:41.151Z,19.5
2023-01-26T01:41:48.479Z,19.7
2023-01-26T01:42:55.530Z,18.2
2023-01-26T01:44:02.673Z,18.8
2023-01-26T01:45:14.824Z,19.9
2023-01-26T01:46:27.144Z,20
2023-01-26T01:47:34.180Z,20.2
2023-01-26T01:48:41.265Z,19.1
2023-01-26T01:49:51.433Z,20.4
2023-01-26T01:50:58.622Z,20.8
2023-01-26T01:52:08.769Z,20.4
2023-01-26T01:53:18.967Z,20.2
2023-01-26T01:54:28.654Z,20.9
2023-01-26T01:55:35.730Z,21
2023-01-26T01:56:42.880Z,19.2
2023-01-26T01:57:50.062Z,20.6
2023-01-26T01:58:57.223Z,19.6
2023-01-26T02:00:04.317Z,20.5
2023-01-26T02:01:11.951Z,19.6
2023-01-26T02:02:19.157Z,19.4
2023-01-26T02:03:26.195Z,19.3
2023-01-26T02:04:33.248Z,20.1
2023-01-26T02:05:40.448Z,18.2
2023-01-26T02:06:55.147Z,20.1
2023-01-26T02:08:02.328Z,19.7
2023-01-26T02:09:09.481Z,19
2023-01-26T02:10:16.603Z,19
2023-01-26T02:11:23.669Z,20.5
2023-01-26T02:12:33.804Z,20
2023-01-26T02:13:40.920Z,19
2023-01-26T02:14:48.078Z,19.8
2023-01-26T02:15:55.229Z,18.8
2023-01-26T02:17:02.488Z,18.6
2023-01-26T02:18:09.440Z,19.1
2023-01-26T02:19:16.644Z,19.3
2023-01-26T02:20:28.844Z,19.4
2023-01-26T02:21:35.881Z,18.1
2023-01-26T02:22:43.006Z,19.2
2023-01-26T02:23:55.310Z,18.9
2023-01-26T02:25:05.427Z,18.2
2023-01-26T02:26:18.300Z,18.4
2023-01-26T02:27:27.788Z,19.2
2023-01-26T02:28:34.831Z,19
2023-01-26T02:29:41.985Z,19.7
2023-01-26T02:30:49.200Z,18.8
2023-01-26T02:31:56.353Z,18.9
2023-01-26T02:33:03.413Z,18.7
2023-01-26T02:34:10.798Z,19
2023-01-26T02:35:18.156Z,18.1
2023-01-26T02:36:25.380Z,17.9
2023-01-26T02:37:32.473Z,18.2
2023-01-26T02:38:39.516Z,17.4
2023-01-26T02:39:46.690Z,18.5
2023-01-26T02:40:59.885Z,17.2
2023-01-26T02:42:13.109Z,18.4
2023-01-26T02:43:25.353Z,18.6
2023-01-26T02:44:32.492Z,17.8
2023-01-26T02:45:39.501Z,18.3
2023-01-26T02:46:46.695Z,18
2023-01-26T02:47:53.829Z,19
2023-01-26T02:49:00.985Z,19.6
2023-01-26T02:50:13.459Z,18.1
2023-01-26T02:51:20.384Z,18.5
2023-01-26T02:52:27.424Z,18.2
2023-01-26T02:53:34.421Z,18.8
2023-01-26T02:54:41.563Z,18.7
2023-01-26T02:55:53.809Z,19
2023-01-26T02:57:01.060Z,19.4
2023-01-26T02:58:08.054Z,18.4
2023-01-26T02:59:15.200Z,18.5
2023-01-26T03:00:22.454Z,18.5
2023-01-26T03:01:31.600Z,19.1
2023-01-26T03:02:36.580Z,19.3
2023-01-26T03:03:43.699Z,19.5
2023-01-26T03:04:50.767Z,19.9
2023-01-26T03:05:58.080Z,18.7
2023-01-26T03:07:05.180Z,19.4
2023-01-26T03:08:12.134Z,20.4
2023-01-26T03:09:19.288Z,20.6
2023-01-26T03:10:26.445Z,20.1
2023-01-26T03:11:33.566Z,21
2023-01-26T03:12:45.700Z,19.1
2023-01-26T03:13:52.890Z,20.2
2023-01-26T03:15:00.130Z,20.2
2023-01-26T03:16:12.789Z,20.9
2023-01-26T03:17:19.980Z,18.5
2023-01-26T03:18:27.127Z,20.4
2023-01-26T03:19:39.164Z,20
2023-01-26T03:20:51.364Z,20.5
2023-01-26T03:22:03.601Z,21.3
2023-01-26T03:23:15.844Z,20
2023-01-26T03:24:28.243Z,20
2023-01-26T03:25:40.669Z,20.1
2023-01-26T03:26:53.017Z,20.3
2023-01-26T03:28:05.205Z,19.1
2023-01-26T03:29:12.291Z,20.2
2023-01-26T03:30:19.495Z,19.5
2023-01-26T03:31:26.787Z,19.3
2023-01-26T03:32:33.615Z,19.3
2023-01-26T03:33:40.728Z,20.8
2023-01-26T03:34:47.886Z,22
2023-01-26T03:35:54.995Z,22.8
2023-01-26T03:37:02.233Z,21.4
2023-01-26T03:38:09.274Z,21.1
2023-01-26T03:39:16.413Z,21
2023-01-26T03:40:28.692Z,21.5
2023-01-26T03:41:40.737Z,20.3
2023-01-26T03:42:53.009Z,20.1
2023-01-26T03:44:05.236Z,19.2
2023-01-26T03:45:17.367Z,19.1
2023-01-26T03:46:29.708Z,20.4
2023-01-26T03:47:42.252Z,20.7
2023-01-26T03:48:54.537Z,20.6
2023-01-26T03:50:06.742Z,20.6
2023-01-26T03:51:18.928Z,19.6
2023-01-26T03:52:31.193Z,18.2
2023-01-26T03:53:43.328Z,18.6
2023-01-26T03:54:55.486Z,18.1
2023-01-26T03:56:07.712Z,18.5
2023-01-26T03:57:17.408Z,19.5
2023-01-26T03:58:24.541Z,20.3
2023-01-26T03:59:31.665Z,19.9
2023-01-26T04:00:41.922Z,19.6
2023-01-26T04:01:49.203Z,19.1
2023-01-26T04:03:01.151Z,18.1
2023-01-26T04:04:13.360Z,18.7
2023-01-26T04:05:25.637Z,18.5
2023-01-26T04:06:37.824Z,18.5
2023-01-26T04:07:50.030Z,18.5
2023-01-26T04:09:07.265Z,18.6
2023-01-26T04:10:22.009Z,18.8
2023-01-26T04:11:33.604Z,18.4
2023-01-26T04:12:44.016Z,19
2023-01-26T04:13:56.146Z,17.8
2023-01-26T04:15:08.346Z,17.8
2023-01-26T04:16:20.704Z,18.4
2023-01-26T04:17:33.016Z,18.2
2023-01-26T04:18:45.056Z,18.6
2023-01-26T04:19:57.272Z,18.7
2023-01-26T04:21:09.965Z,17.8
2023-01-26T04:22:22.209Z,17.8
2023-01-26T04:23:29.406Z,18.1
2023-01-26T04:24:36.393Z,18.2
2023-01-26T04:25:43.585Z,18.5
2023-01-26T04:26:50.825Z,18.7
2023-01-26T04:27:57.789Z,19.1
2023-01-26T04:29:04.884Z,18.7
2023-01-26T04:30:14.702Z,17.8
2023-01-26T04:31:21.870Z,18.2
2023-01-26T04:32:28.982Z,17.9
2023-01-26T04:33:36.039Z,17.5
2023-01-26T04:34:43.364Z,17.4
2023-01-26T04:35:50.355Z,18.9
2023-01-26T04:36:57.448Z,18
2023-01-26T04:38:04.564Z,18.8
2023-01-26T04:39:11.743Z,17.8
2023-01-26T04:40:18.819Z,17.6
2023-01-26T04:41:26.163Z,19.2
2023-01-26T04:42:33.150Z,18.2
2023-01-26T04:43:40.230Z,17.6
2023-01-26T04:44:47.355Z,18.2
2023-01-26T04:45:54.497Z,18.7
2023-01-26T04:47:04.162Z,18.9
2023-01-26T04:48:11.268Z,19.1
2023-01-26T04:49:18.568Z,18.5
2023-01-26T04:50:25.547Z,18.6
2023-01-26T04:51:32.792Z,18.3
2023-01-26T04:52:39.804Z,18.5
2023-01-26T04:53:46.897Z,19.3
2023-01-26T04:54:54.108Z,18.7
2023-01-26T04:56:01.293Z,19
2023-01-26T04:57:08.835Z,19.2
2023-01-26T04:58:16.020Z,17.2
2023-01-26T04:59:23.128Z,19.3
2023-01-26T05:00:30.283Z,20.2
2023-01-26T05:01:37.330Z,19.3
2023-01-26T05:02:44.576Z,19.3
2023-01-26T05:03:51.597Z,20.3
2023-01-26T05:04:58.724Z,19.6
2023-01-26T05:06:05.959Z,19.4
2023-01-26T05:07:12.953Z,20
2023-01-26T05:08:20.301Z,20.9
2023-01-26T05:09:27.356Z,20
2023-01-26T05:10:34.402Z,20.6
2023-01-26T05:11:41.484Z,19.2
2023-01-26T05:12:48.635Z,19.2
2023-01-26T05:13:55.856Z,19.1
2023-01-26T05:15:03.022Z,18.8
2023-01-26T05:16:10.663Z,19.2
2023-01-26T05:17:17.779Z,18.7
2023-01-26T05:18:24.928Z,18.6
2023-01-26T05:19:32.019Z,19.1
2023-01-26T05:20:39.156Z,18.7
2023-01-26T05:21:46.308Z,17.9
2023-01-26T05:22:53.485Z,19.5
2023-01-26T05:24:00.677Z,18.1
2023-01-26T05:25:07.692Z,20.5
2023-01-26T05:26:14.809Z,18.7
2023-01-26T05:27:21.938Z,20.3
2023-01-26T05:28:29.109Z,19.9
2023-01-26T05:29:36.256Z,19.9
2023-01-26T05:30:43.258Z,19.6
2023-01-26T05:31:50.510Z,19.8
2023-01-26T05:32:57.568Z,19.3
2023-01-26T05:34:07.732Z,19.3
2023-01-26T05:35:14.879Z,19.8
2023-01-26T05:36:22.058Z,19.6
2023-01-26T05:37:29.220Z,20.2
2023-01-26T05:38:36.265Z,21.2
2023-01-26T05:39:43.418Z,20.5
2023-01-26T05:40:50.545Z,21.9
2023-01-26T05:41:57.821Z,21.2
2023-01-26T05:43:04.919Z,21.9
2023-01-26T05:44:12.008Z,22.6
2023-01-26T05:45:19.195Z,22.2
2023-01-26T05:46:26.350Z,23.7
2023-01-26T05:47:33.419Z,22.4
2023-01-26T05:48:40.591Z,25.1
2023-01-26T05:49:47.588Z,24.4
2023-01-26T05:50:54.712Z,25.6
2023-01-26T05:52:01.884Z,26.1
2023-01-26T05:53:08.963Z,26.7
2023-01-26T05:54:16.129Z,26.3
2023-01-26T05:55:23.339Z,26.1
2023-01-26T05:56:30.355Z,27.4
2023-01-26T05:57:37.333Z,27.8
2023-01-26T05:58:44.527Z,27.5
2023-01-26T05:59:51.739Z,27.5
2023-01-26T06:00:58.839Z,27.6
2023-01-26T06:02:08.558Z,28.4
2023-01-26T06:03:15.832Z,28.2
2023-01-26T06:04:22.838Z,27.4
2023-01-26T06:05:29.894Z,27
2023-01-26T06:06:37.021Z,27.6
2023-01-26T06:07:44.126Z,26.5
2023-01-26T06:08:51.325Z,27.5
2023-01-26T06:09:58.336Z,27
2023-01-26T06:11:05.577Z,27
2023-01-26T06:12:12.785Z,25.8
2023-01-26T06:13:19.738Z,24.9
2023-01-26T06:14:26.930Z,26.8
2023-01-26T06:15:34.048Z,26.8
2023-01-26T06:16:41.193Z,26.8
2023-01-26T06:17:48.251Z,26.2
2023-01-26T06:18:55.431Z,25.8
2023-01-26T06:20:02.540Z,25.5
2023-01-26T06:21:09.735Z,24.8
2023-01-26T06:22:16.905Z,26.1
2023-01-26T06:23:23.996Z,25
2023-01-26T06:24:31.170Z,25.7
2023-01-26T06:25:38.211Z,25.3
2023-01-26T06:26:45.432Z,24
2023-01-26T06:27:52.610Z,25.3
2023-01-26T06:28:59.629Z,24.6
2023-01-26T06:30:06.815Z,24.8
2023-01-26T06:31:14.586Z,24.5
2023-01-26T06:32:21.519Z,24.5
2023-01-26T06:33:28.784Z,24.5
2023-01-26T06:34:36.298Z,25.3
2023-01-26T06:35:43.550Z,25.2
2023-01-26T06:36:50.552Z,25.4
2023-01-26T06:37:57.656Z,24.2
2023-01-26T06:39:04.838Z,26
2023-01-26T06:40:12.279Z,25.5
2023-01-26T06:41:19.136Z,25.5
2023-01-26T06:42:26.422Z,26.4
2023-01-26T06:43:33.795Z,26
2023-01-26T06:44:40.924Z,26.3
2023-01-26T06:45:48.095Z,26
2023-01-26T06:46:55.205Z,26.7
2023-01-26T06:48:02.449Z,27
2023-01-26T06:49:09.596Z,25.4
2023-01-26T06:50:16.593Z,27.6
2023-01-26T06:51:23.737Z,27.8
2023-01-26T06:52:40.353Z,28
2023-01-26T06:53:46.046Z,26.3
2023-01-26T06:54:56.288Z,27.8
2023-01-26T06:56:03.336Z,27.8
2023-01-26T06:57:10.494Z,30
2023-01-26T06:58:17.701Z,27.5
2023-01-26T06:59:24.823Z,30
2023-01-26T07:00:31.957Z,29
2023-01-26T07:01:39.052Z,29.7
2023-01-26T07:02:49.153Z,29.6
2023-01-26T07:03:56.335Z,28.6
2023-01-26T07:05:03.417Z,29.2
2023-01-26T07:06:10.586Z,30.5
2023-01-26T07:07:17.710Z,28.8
2023-01-26T07:08:24.905Z,29.4
2023-01-26T07:09:31.941Z,30.5
2023-01-26T07:10:39.007Z,28.5
2023-01-26T07:11:46.208Z,29.4
2023-01-26T07:12:53.326Z,28.9
2023-01-26T07:14:00.478Z,29.7
2023-01-26T07:15:07.765Z,29.7
2023-01-26T07:16:14.823Z,28.5
2023-01-26T07:17:21.925Z,29.4
2023-01-26T07:18:29.128Z,28.5
2023-01-26T07:19:36.125Z,28.7
2023-01-26T07:20:43.243Z,29.3
2023-01-26T07:21:50.494Z,29.2
2023-01-26T07:22:57.526Z,27.9
2023-01-26T07:24:04.771Z,30.4
2023-01-26T07:25:11.817Z,31
2023-01-26T07:26:18.963Z,29.5
2023-01-26T07:27:26.106Z,27.9
2023-01-26T07:28:33.314Z,29.5
2023-01-26T07:29:40.355Z,30.3
2023-01-26T07:30:47.437Z,30
2023-01-26T07:31:54.632Z,29.6
2023-01-26T07:33:01.758Z,31.6
2023-01-26T07:34:14.473Z,31.3
2023-01-26T07:35:21.764Z,31.2
2023-01-26T07:36:28.784Z,30.9
2023-01-26T07:37:35.762Z,30
2023-01-26T07:38:42.913Z,28
2023-01-26T07:39:50.111Z,28.2
2023-01-26T07:40:57.194Z,29.5
2023-01-26T07:42:04.336Z,28.2
2023-01-26T07:43:11.529Z,29.6
2023-01-26T07:44:18.682Z,28.3
2023-01-26T07:45:25.710Z,27.8
2023-01-26T07:46:32.813Z,26.7
2023-01-26T07:47:39.904Z,25.3
2023-01-26T07:48:47.084Z,25.3
2023-01-26T07:49:54.319Z,26.6
2023-01-26T07:51:01.339Z,27.1
2023-01-26T07:52:08.483Z,27
2023-01-26T07:53:15.585Z,28
2023-01-26T07:54:23.153Z,30.3
2023-01-26T07:55:30.477Z,28.9
2023-01-26T07:56:37.423Z,29
2023-01-26T07:57:44.559Z,26
2023-01-26T07:58:52.978Z,26.9
2023-01-26T08:00:00.602Z,26.5
2023-01-26T08:01:08.142Z,25.5
2023-01-26T08:02:15.533Z,25.9
2023-01-26T08:03:24.705Z,26.4
2023-01-26T08:04:33.152Z,24.9
2023-01-26T08:05:41.454Z,26.7
2023-01-26T08:06:50.270Z,28.8
2023-01-26T08:07:57.351Z,30.1
2023-01-26T08:09:04.978Z,30.5
2023-01-26T08:10:12.433Z,28.3
2023-01-26T08:11:29.300Z,26.6
2023-01-26T08:12:41.232Z,28.1
2023-01-26T08:13:51.836Z,28
2023-01-26T08:14:58.925Z,29.6
2023-01-26T08:16:06.119Z,29.8
2023-01-26T08:17:14.543Z,30.4
2023-01-26T08:18:23.657Z,27.3
2023-01-26T08:19:31.402Z,28.6
2023-01-26T08:20:38.646Z,28.1
2023-01-26T08:21:46.096Z,28.8
2023-01-26T08:22:55.948Z,27.7
2023-01-26T08:24:05.046Z,30.1
2023-01-26T08:25:13.299Z,32.8
2023-01-26T08:26:20.479Z,28.7
2023-01-26T08:27:27.624Z,29.5
2023-01-26T08:28:34.857Z,28.8
2023-01-26T08:29:41.692Z,29
2023-01-26T08:30:49.755Z,28.8
2023-01-26T08:32:03.557Z,29.3
2023-01-26T08:33:12.827Z,29.1
2023-01-26T08:34:20.014Z,31.7
2023-01-26T08:35:29.214Z,31
2023-01-26T08:36:37.552Z,30.4
2023-01-26T08:37:45.011Z,30.2
2023-01-26T08:38:52.417Z,29.7
2023-01-26T08:40:01.480Z,31.1
2023-01-26T08:41:11.304Z,32.1
2023-01-26T08:42:19.905Z,32
2023-01-26T08:43:27.001Z,30.3
2023-01-26T08:44:34.397Z,30.5
2023-01-26T08:45:42.787Z,30.6
2023-01-26T08:46:50.983Z,31.5
2023-01-26T08:47:58.459Z,29.7
2023-01-26T08:49:07.216Z,30.8
2023-01-26T08:50:15.339Z,32
2023-01-26T08:51:23.741Z,30.4
2023-01-26T08:52:31.126Z,33.1
2023-01-26T08:53:39.464Z,31.2
2023-01-26T08:54:47.695Z,30.1
2023-01-26T08:55:54.685Z,29.4
2023-01-26T08:57:02.773Z,31.1
2023-01-26T08:58:10.999Z,29.1
2023-01-26T08:59:20.167Z,29.4
2023-01-26T09:00:27.483Z,29.8
2023-01-26T09:01:35.916Z,28.4
2023-01-26T09:02:43.705Z,30.8
2023-01-26T09:03:51.471Z,27.1
2023-01-26T09:04:58.332Z,28.2
2023-01-26T09:06:05.678Z,29.5
2023-01-26T09:07:14.863Z,29.9
2023-01-26T09:08:22.523Z,27.8
2023-01-26T09:09:30.309Z,29
2023-01-26T09:10:41.771Z,29.3
2023-01-26T09:11:50.319Z,29.1
2023-01-26T09:13:01.456Z,30.9
2023-01-26T09:14:09.105Z,32.8
2023-01-26T09:15:16.201Z,29.4
2023-01-26T09:16:23.351Z,29.4
2023-01-26T09:17:30.509Z,29.4
2023-01-26T09:18:37.744Z,31.4
2023-01-26T09:19:45.153Z,30.2
2023-01-26T09:20:53.078Z,32.3
2023-01-26T09:22:01.161Z,31.5
2023-01-26T09:23:10.459Z,30.9
2023-01-26T09:24:18.247Z,30.7
2023-01-26T09:25:26.552Z,29.9
2023-01-26T09:26:34.121Z,32
2023-01-26T09:27:42.288Z,32.1
2023-01-26T09:28:49.625Z,31.1
2023-01-26T09:29:57.421Z,31.7
2023-01-26T09:31:04.345Z,31.1
2023-01-26T09:32:11.405Z,31
2023-01-26T09:33:18.639Z,31
2023-01-26T09:34:25.637Z,31.1
2023-01-26T09:35:34.815Z,30.5
2023-01-26T09:36:41.934Z,31.4
2023-01-26T09:37:49.329Z,30.8
2023-01-26T09:38:56.569Z,31.1
2023-01-26T09:40:05.606Z,31.1
2023-01-26T09:41:13.504Z,30.9
2023-01-26T09:42:26.146Z,30.9
2023-01-26T09:43:36.924Z,32.5
2023-01-26T09:44:52.255Z,30.2
2023-01-26T09:46:10.019Z,31.7
2023-01-26T09:47:26.118Z,30.6
2023-01-26T09:48:44.305Z,30.6
2023-01-26T09:49:57.527Z,32.2
2023-01-26T09:51:09.286Z,32.2
2023-01-26T09:52:19.347Z,31.5
2023-01-26T09:53:31.697Z,31
2023-01-26T09:54:44.584Z,33.6
2023-01-26T09:55:54.718Z,33
2023-01-26T09:57:01.820Z,32.3
2023-01-26T09:58:14.085Z,32
2023-01-26T09:59:24.579Z,31.7
2023-01-26T10:00:40.628Z,33
2023-01-26T10:01:50.838Z,33.3
2023-01-26T10:03:04.060Z,30.6
2023-01-26T10:04:17.551Z,31.5
2023-01-26T10:05:36.805Z,31.2
2023-01-26T10:06:49.321Z,31.4
2023-01-26T10:07:56.902Z,32.5
2023-01-26T10:09:04.368Z,29.3
2023-01-26T10:10:11.738Z,28.1
2023-01-26T10:11:18.672Z,27.5
2023-01-26T10:12:30.062Z,29.7
2023-01-26T10:13:38.481Z,30.9
2023-01-26T10:14:45.692Z,28.7
2023-01-26T10:15:55.456Z,30
2023-01-26T10:17:05.741Z,29.3
2023-01-26T10:18:19.658Z,31.2
2023-01-26T10:19:30.873Z,30.7
2023-01-26T10:20:38.265Z,32.9
2023-01-26T10:21:48.729Z,30.8
2023-01-26T10:22:56.809Z,31.2
2023-01-26T10:24:09.258Z,30.1
2023-01-26T10:25:16.432Z,30
2023-01-26T10:26:31.215Z,31
2023-01-26T10:27:39.393Z,32
2023-01-26T10:28:47.229Z,32
2023-01-26T10:29:54.478Z,33.1
2023-01-26T10:31:02.263Z,31.4
2023-01-26T10:32:09.251Z,30.6
2023-01-26T10:33:19.830Z,34
2023-01-26T10:34:27.470Z,32.7
2023-01-26T10:35:36.665Z,31.1
2023-01-26T10:36:44.138Z,32.1
2023-01-26T10:37:52.348Z,32.8
2023-01-26T10:39:00.742Z,32.3
2023-01-26T10:40:13.116Z,32.6
2023-01-26T10:41:20.689Z,30.9
2023-01-26T10:42:32.304Z,32.4
2023-01-26T10:43:39.985Z,32.4
2023-01-26T10:45:00.365Z,31.2
2023-01-26T10:46:11.575Z,29.2
2023-01-26T10:47:27.503Z,29.8
2023-01-26T10:48:34.781Z,30.5
2023-01-26T10:49:42.932Z,29.3
2023-01-26T10:50:51.005Z,30.3
2023-01-26T10:51:58.568Z,30
2023-01-26T10:53:08.644Z,26.6
2023-01-26T10:54:20.224Z,27.5
2023-01-26T10:55:28.410Z,26.7
2023-01-26T10:56:36.502Z,26.1
2023-01-26T10:57:46.780Z,26.5
2023-01-26T10:58:55.060Z,26.3
2023-01-26T11:00:02.319Z,26.1
2023-01-26T11:01:16.317Z,25.7
2023-01-26T11:02:24.274Z,28.1
2023-01-26T11:03:31.347Z,26.8
2023-01-26T11:04:38.593Z,26.9
2023-01-26T11:05:46.565Z,28.5
2023-01-26T11:06:53.701Z,27.9
2023-01-26T11:08:01.757Z,27.6
2023-01-26T11:09:10.001Z,26.1
2023-01-26T11:10:18.889Z,27.8
2023-01-26T11:11:31.424Z,27.2
2023-01-26T11:12:39.271Z,27.2
2023-01-26T11:13:46.629Z,26.3
2023-01-26T11:14:53.885Z,29.2
2023-01-26T11:16:04.212Z,29
2023-01-26T11:17:22.769Z,29
2023-01-26T11:18:31.897Z,30.3
2023-01-26T11:19:44.173Z,30.1
2023-01-26T11:20:58.252Z,29.5
2023-01-26T11:22:13.809Z,27.3
2023-01-26T11:23:20.713Z,28.2
2023-01-26T11:24:42.274Z,26.5
2023-01-26T11:25:48.461Z,27
2023-01-26T11:27:01.673Z,29.4
2023-01-26T11:28:17.547Z,27.6
2023-01-26T11:29:30.901Z,27
2023-01-26T11:30:46.291Z,27.5
2023-01-26T11:31:59.958Z,27.8
2023-01-26T11:33:16.918Z,27.8
2023-01-26T11:34:25.208Z,26.1
2023-01-26T11:35:43.292Z,25.6
2023-01-26T11:36:53.276Z,27.2
2023-01-26T11:38:10.807Z,28.4
2023-01-26T11:39:23.330Z,27.2
2023-01-26T11:40:39.752Z,28.4
2023-01-26T11:41:54.861Z,27.1
2023-01-26T11:43:06.991Z,26.6
2023-01-26T11:44:24.443Z,28.3
2023-01-26T11:45:31.561Z,28.6
2023-01-26T11:46:44.270Z,26.7
2023-01-26T11:47:51.313Z,27
2023-01-26T11:49:06.591Z,27.8
2023-01-26T11:50:18.868Z,28
2023-01-26T11:51:31.065Z,26.9
2023-01-26T11:52:48.794Z,27.3
2023-01-26T11:53:59.038Z,27.2
2023-01-26T11:55:18.168Z,27.3
2023-01-26T11:56:37.915Z,28
2023-01-26T11:57:52.352Z,27.6
2023-01-26T11:59:08.992Z,27.3
2023-01-26T12:00:29.814Z,29
2023-01-26T12:01:33.470Z,28.1
2023-01-26T12:02:45.590Z,27.3
2023-01-26T12:03:54.129Z,27.1
2023-01-26T12:05:04.927Z,28.2
2023-01-26T12:06:17.886Z,27.6
2023-01-26T12:07:35.521Z,27.5
2023-01-26T12:08:52.023Z,26.1
2023-01-26T12:10:08.333Z,27.1
2023-01-26T12:11:16.711Z,25.3
2023-01-26T12:12:34.044Z,26.2
2023-01-26T12:13:45.273Z,26.8
2023-01-26T12:15:04.287Z,26.1
2023-01-26T12:16:21.568Z,25.9
2023-01-26T12:17:36.585Z,26.5
2023-01-26T12:18:53.414Z,26.3
2023-01-26T12:20:01.309Z,26.8
2023-01-26T12:21:20.253Z,27.2
2023-01-26T12:22:29.762Z,32.8
2023-01-26T12:23:43.658Z,73.8
2023-01-26T12:25:20.105Z,73.8
2023-01-26T12:26:10.885Z,73.8
2023-01-26T12:27:21.465Z,35.1
2023-01-26T12:28:34.342Z,32.8
2023-01-26T12:29:42.766Z,30.3
2023-01-26T12:30:58.874Z,31.6
2023-01-26T12:32:19.000Z,29.4
2023-01-26T12:33:26.893Z,28.2
2023-01-26T12:34:36.070Z,28.6
2023-01-26T12:35:46.627Z,30.4
2023-01-26T12:37:06.329Z,27.7
2023-01-26T12:38:24.693Z,27.2
2023-01-26T12:39:40.697Z,29
2023-01-26T12:40:50.985Z,28.8
2023-01-26T12:42:03.898Z,28.2
2023-01-26T12:43:19.364Z,30.9
2023-01-26T12:44:39.522Z,29.9
2023-01-26T12:45:50.737Z,31.4
2023-01-26T12:46:59.964Z,30.6
2023-01-26T12:48:11.817Z,30.6
2023-01-26T12:49:24.540Z,30.6
2023-01-26T12:50:39.740Z,31.1
2023-01-26T12:51:51.953Z,32.2
2023-01-26T12:53:01.357Z,31.7
2023-01-26T12:54:17.269Z,30.9
2023-01-26T12:55:33.459Z,30.7
2023-01-26T12:56:45.728Z,30.4
2023-01-26T12:57:57.125Z,31.9
2023-01-26T12:59:06.884Z,30.9
2023-01-26T13:00:28.764Z,30.5
2023-01-26T13:01:39.758Z,30.6
2023-01-26T13:02:50.913Z,31.6
2023-01-26T13:04:01.458Z,30.9
2023-01-26T13:05:09.321Z,30.4
2023-01-26T13:06:31.865Z,30.9
2023-01-26T13:07:41.977Z,31.5
2023-01-26T13:08:51.434Z,30.7
2023-01-26T13:10:04.255Z,29.7
2023-01-26T13:11:17.053Z,31.3
2023-01-26T13:12:37.205Z,30.2
2023-01-26T13:13:52.612Z,30.9
2023-01-26T13:15:06.170Z,32.2
2023-01-26T13:16:13.795Z,32.1
2023-01-26T13:17:24.915Z,31.8
2023-01-26T13:18:34.281Z,33.4
2023-01-26T13:19:46.642Z,32.1
2023-01-26T13:20:53.835Z,32.9
2023-01-26T13:22:01.425Z,31.8
2023-01-26T13:23:08.409Z,32.5
2023-01-26T13:24:25.780Z,33.2
2023-01-26T13:25:32.991Z,32.7
2023-01-26T13:26:40.747Z,33.2
2023-01-26T13:27:50.825Z,33.8
2023-01-26T13:28:58.405Z,33.5
2023-01-26T13:30:16.166Z,33.1
2023-01-26T13:31:29.023Z,32.9
2023-01-26T13:32:36.075Z,33.3
2023-01-26T13:33:43.215Z,32.1
2023-01-26T13:34:50.277Z,31.6
2023-01-26T13:36:03.733Z,33
2023-01-26T13:37:21.060Z,34.6
2023-01-26T13:38:40.041Z,33.1
2023-01-26T13:39:53.846Z,31.2
2023-01-26T13:41:13.965Z,33.2
2023-01-26T13:42:28.483Z,33.4
2023-01-26T13:43:42.991Z,33.5
2023-01-26T13:44:58.914Z,32.6
2023-01-26T13:46:18.088Z,36.6
2023-01-26T13:47:30.245Z,34
2023-01-26T13:48:46.595Z,31.9
2023-01-26T13:50:02.160Z,43.5
2023-01-26T13:51:30.316Z,39.2
2023-01-26T13:52:44.942Z,38.4
2023-01-26T13:53:54.202Z,43.2
2023-01-26T13:55:13.412Z,41.3
2023-01-26T13:56:32.376Z,90.1
2023-01-26T13:57:51.108Z,68.6
2023-01-26T14:00:22.408Z,67.5
2023-01-26T14:01:31.768Z,46.8
2023-01-26T14:02:37.121Z,35.4
2023-01-26T14:03:44.024Z,36.7
2023-01-26T14:04:51.323Z,35.3
2023-01-26T14:05:58.270Z,33.6
2023-01-26T14:07:08.525Z,30.9
2023-01-26T14:08:15.738Z,26.2
2023-01-26T14:09:22.698Z,25.4
2023-01-26T14:10:29.930Z,20.5
2023-01-26T14:11:37.003Z,23.4
2023-01-26T14:12:44.064Z,22.8
2023-01-26T14:13:57.165Z,23.4
2023-01-26T14:15:04.399Z,24.9
2023-01-26T14:16:11.575Z,24
2023-01-26T14:17:24.310Z,22.9
2023-01-26T14:18:31.373Z,22.7
2023-01-26T14:19:38.632Z,24.1
2023-01-26T14:20:45.567Z,24.3
2023-01-26T14:21:52.767Z,24.4
2023-01-26T14:23:02.884Z,26.2
2023-01-26T14:24:10.053Z,32.4
2023-01-26T14:25:17.235Z,28.1
2023-01-26T14:26:24.173Z,37.1
2023-01-26T14:27:31.395Z,90.4
2023-01-26T14:28:38.449Z,70.3
2023-01-26T14:29:45.674Z,67.7
2023-01-26T14:30:52.918Z,94.5
2023-01-26T14:31:59.799Z,151.9
2023-01-26T14:33:06.965Z,166.8
2023-01-26T14:34:16.557Z,214
2023-01-26T14:35:23.830Z,213.2
2023-01-26T14:36:31.726Z,335.8
2023-01-26T14:37:38.991Z,380.8
2023-01-26T14:38:46.117Z,298.6
2023-01-26T14:39:54.126Z,253.2
2023-01-26T14:41:11.767Z,169.4
2023-01-26T14:42:21.781Z,118.6
2023-01-26T14:43:28.803Z,83.1
2023-01-26T14:44:36.861Z,56.1
2023-01-26T14:45:44.182Z,36.8
2023-01-26T14:46:54.389Z,36.5
2023-01-26T14:48:09.563Z,53.7
2023-01-26T14:49:16.631Z,40.4
2023-01-26T14:50:23.948Z,38.8
2023-01-26T14:51:31.071Z,41.1
2023-01-26T14:52:38.087Z,28.2
2023-01-26T14:53:45.369Z,29.7
2023-01-26T14:54:55.358Z,29.3
2023-01-26T14:56:02.563Z,30
2023-01-26T14:57:09.838Z,30.4
2023-01-26T14:58:16.911Z,34.3
2023-01-26T14:59:29.028Z,34.7
2023-01-26T15:00:41.215Z,34.1
2023-01-26T15:01:49.360Z,34.6
2023-01-26T15:02:56.441Z,32.9
2023-01-26T15:04:03.936Z,30.4
2023-01-26T15:05:21.475Z,29
2023-01-26T15:06:40.757Z,33.2
2023-01-26T15:07:48.096Z,34.1
2023-01-26T15:08:58.083Z,34.3
2023-01-26T15:10:08.252Z,32.2
2023-01-26T15:11:20.501Z,30.3
2023-01-26T15:12:32.761Z,30.1
2023-01-26T15:13:39.741Z,30.8
2023-01-26T15:14:49.508Z,46.8
2023-01-26T15:15:59.634Z,42.2
2023-01-26T15:17:09.347Z,36.6
2023-01-26T15:18:26.701Z,36.9
2023-01-26T15:19:33.879Z,39.7
2023-01-26T15:20:43.856Z,36.5
2023-01-26T15:21:56.294Z,33.8
2023-01-26T15:23:03.353Z,34.5
2023-01-26T15:24:21.399Z,35.9
2023-01-26T15:25:28.230Z,37.1
2023-01-26T15:26:35.377Z,53
2023-01-26T15:27:42.523Z,38.5
2023-01-26T15:28:53.528Z,38.5
2023-01-26T15:30:00.774Z,39.1